createdAt,value
2022-10-05T00:01:47.747Z,13.03
2022-10-05T00:04:18.676Z,13.12
2022-10-05T00:07:00.929Z,12.97
2022-10-05T00:09:31.651Z,12.97
2022-10-05T00:11:58.402Z,12.97
2022-10-05T00:14:31.353Z,13.16
2022-10-05T00:16:58.374Z,13.29
2022-10-05T00:19:37.527Z,13.28
2022-10-05T00:22:21.006Z,13.23
2022-10-05T00:24:50.343Z,13.14
2022-10-05T00:27:24.605Z,12.96
2022-10-05T00:29:53.886Z,12.84
2022-10-05T00:32:20.391Z,12.59
2022-10-05T00:34:47.231Z,12.63
2022-10-05T00:37:14.402Z,12.72
2022-10-05T00:39:42.484Z,13.06
2022-10-05T00:42:46.423Z,13.25
2022-10-05T00:45:15.327Z,13.16
2022-10-05T00:47:49.693Z,13.26
2022-10-05T00:50:53.686Z,13.24
2022-10-05T00:53:42.542Z,13.10
2022-10-05T00:56:33.212Z,13.07
2022-10-05T00:59:20.696Z,13.16
2022-10-05T01:01:57.826Z,13.15
2022-10-05T01:05:03.587Z,13.07
2022-10-05T01:07:42.354Z,13.34
2022-10-05T01:10:35.162Z,13.27
2022-10-05T01:13:15.247Z,13.23
2022-10-05T01:16:07.515Z,13.08
2022-10-05T01:18:46.352Z,12.99
2022-10-05T01:21:12.809Z,13.02
2022-10-05T01:24:02.388Z,13.04
2022-10-05T01:26:57.402Z,13.24
2022-10-05T01:29:23.842Z,13.22
2022-10-05T01:32:25.960Z,13.00
2022-10-05T01:35:07.764Z,12.87
2022-10-05T01:37:47.909Z,12.69
2022-10-05T01:40:26.825Z,12.57
2022-10-05T01:42:53.269Z,12.59
2022-10-05T01:45:43.331Z,12.54
2022-10-05T01:48:28.608Z,12.50
2022-10-05T01:51:00.991Z,12.47
2022-10-05T01:53:48.848Z,12.44
2022-10-05T01:56:15.300Z,12.47
2022-10-05T01:59:02.605Z,12.39
2022-10-05T02:01:54.067Z,12.38
2022-10-05T02:04:59.754Z,12.33
2022-10-05T02:07:43.941Z,12.65
2022-10-05T02:10:31.049Z,12.66
2022-10-05T02:13:02.552Z,12.59
2022-10-05T02:15:58.752Z,12.49
2022-10-05T02:18:36.676Z,12.44
2022-10-05T02:21:04.326Z,12.48
2022-10-05T02:23:33.651Z,12.42
2022-10-05T02:26:01.580Z,12.22
2022-10-05T02:28:38.397Z,12.12
2022-10-05T02:31:31.216Z,12.09
2022-10-05T02:34:28.695Z,12.21
2022-10-05T02:37:34.299Z,12.29
2022-10-05T02:40:22.347Z,12.45
2022-10-05T02:43:27.883Z,12.33
2022-10-05T02:46:19.524Z,12.31
2022-10-05T02:49:11.205Z,12.30
2022-10-05T02:52:05.751Z,12.29
2022-10-05T02:54:35.454Z,12.29
2022-10-05T02:57:39.920Z,11.89
2022-10-05T03:00:16.230Z,11.85
2022-10-05T03:03:06.314Z,11.79
2022-10-05T03:05:45.770Z,11.76
2022-10-05T03:08:41.656Z,11.81
2022-10-05T03:11:23.200Z,12.01
2022-10-05T03:14:13.504Z,12.10
2022-10-05T03:16:58.052Z,12.11
2022-10-05T03:19:49.276Z,12.15
2022-10-05T03:22:24.257Z,12.32
2022-10-05T03:24:50.730Z,12.22
2022-10-05T03:27:26.923Z,12.13
2022-10-05T03:29:56.071Z,12.15
2022-10-05T03:32:30.205Z,12.22
2022-10-05T03:35:18.397Z,12.14
2022-10-05T03:38:06.239Z,12.08
2022-10-05T03:40:50.529Z,12.04
2022-10-05T03:43:32.073Z,12.08
2022-10-05T03:46:10.775Z,12.31
2022-10-05T03:48:47.911Z,12.21
2022-10-05T03:51:38.216Z,12.01
2022-10-05T03:54:14.974Z,11.95
2022-10-05T03:56:48.730Z,12.10
2022-10-05T03:59:30.124Z,12.08
2022-10-05T04:02:02.309Z,11.87
2022-10-05T04:04:36.704Z,11.70
2022-10-05T04:07:04.546Z,11.77
2022-10-05T04:09:39.438Z,11.76
2022-10-05T04:12:21.821Z,11.64
2022-10-05T04:14:57.073Z,11.66
2022-10-05T04:17:33.692Z,11.66
2022-10-05T04:20:06.139Z,11.53
2022-10-05T04:22:40.536Z,11.50
2022-10-05T04:25:50.565Z,11.41
2022-10-05T04:28:31.949Z,11.50
2022-10-05T04:31:02.738Z,11.57
2022-10-05T04:33:29.353Z,11.58
2022-10-05T04:36:27.697Z,11.62
2022-10-05T04:39:05.555Z,11.65
2022-10-05T04:41:38.184Z,11.80
2022-10-05T04:44:10.277Z,11.78
2022-10-05T04:47:11.038Z,11.73
2022-10-05T04:50:07.626Z,11.63
2022-10-05T04:53:11.159Z,11.73
2022-10-05T04:55:55.331Z,11.74
2022-10-05T04:58:42.387Z,11.83
2022-10-05T05:01:24.867Z,11.74
2022-10-05T05:04:29.108Z,11.63
2022-10-05T05:07:03.211Z,11.52
2022-10-05T05:10:07.652Z,11.62
2022-10-05T05:12:57.751Z,11.46
2022-10-05T05:15:55.053Z,11.40
2022-10-05T05:18:59.488Z,11.33
2022-10-05T05:21:38.158Z,11.31
2022-10-05T05:24:21.962Z,11.32
2022-10-05T05:27:55.217Z,11.08
2022-10-05T05:30:27.149Z,11.13
2022-10-05T05:33:11.580Z,11.14
2022-10-05T05:35:40.726Z,11.03
2022-10-05T05:38:25.372Z,11.08
2022-10-05T05:40:57.714Z,11.07
2022-10-05T05:43:46.533Z,11.20
2022-10-05T05:46:33.957Z,11.42
2022-10-05T05:49:27.385Z,11.75
2022-10-05T05:52:38.395Z,11.90
2022-10-05T05:55:30.649Z,11.99
2022-10-05T05:58:06.235Z,12.02
2022-10-05T06:00:42.081Z,11.85
2022-10-05T06:03:19.098Z,11.76
2022-10-05T06:05:55.850Z,11.53
2022-10-05T06:08:36.080Z,11.41
2022-10-05T06:11:14.454Z,11.29
2022-10-05T06:13:42.634Z,11.12
2022-10-05T06:16:32.579Z,11.09
2022-10-05T06:19:04.983Z,11.07
2022-10-05T06:21:44.940Z,11.05
2022-10-05T06:24:21.305Z,11.10
2022-10-05T06:27:25.328Z,11.29
2022-10-05T06:30:07.118Z,11.44
2022-10-05T06:32:36.392Z,11.35
2022-10-05T06:35:08.976Z,11.38
2022-10-05T06:38:01.154Z,11.44
2022-10-05T06:40:42.850Z,11.44
2022-10-05T06:43:36.297Z,11.48
2022-10-05T06:46:22.981Z,11.54
2022-10-05T06:49:19.089Z,11.44
2022-10-05T06:51:58.071Z,11.69
2022-10-05T06:54:57.016Z,11.58
2022-10-05T06:57:46.703Z,11.52
2022-10-05T07:00:22.325Z,11.68
2022-10-05T07:03:24.877Z,11.72
2022-10-05T07:05:55.235Z,11.80
2022-10-05T07:08:48.990Z,11.81
2022-10-05T07:11:24.628Z,11.99
2022-10-05T07:14:22.323Z,12.20
2022-10-05T07:17:13.802Z,12.26
2022-10-05T07:20:23.785Z,12.27
2022-10-05T07:22:52.824Z,12.61
2022-10-05T07:25:24.146Z,12.72
2022-10-05T07:28:00.174Z,13.23
2022-10-05T07:30:26.843Z,13.70
2022-10-05T07:33:24.317Z,14.36
2022-10-05T07:36:35.442Z,14.75
2022-10-05T07:39:15.724Z,15.36
2022-10-05T07:41:52.570Z,15.83
2022-10-05T07:44:33.338Z,16.37
2022-10-05T07:47:25.110Z,16.90
2022-10-05T07:50:02.508Z,17.31
2022-10-05T07:52:38.096Z,17.74
2022-10-05T07:55:17.780Z,18.03
2022-10-05T07:58:35.272Z,18.29
2022-10-05T08:01:13.914Z,18.43
2022-10-05T08:03:53.772Z,18.80
2022-10-05T08:06:43.998Z,18.88
2022-10-05T08:09:13.468Z,19.04
2022-10-05T08:11:58.171Z,19.21
2022-10-05T08:14:33.573Z,19.24
2022-10-05T08:17:09.259Z,19.57
2022-10-05T08:19:46.919Z,19.44
2022-10-05T08:22:23.132Z,19.77
2022-10-05T08:24:57.991Z,20.19
2022-10-05T08:27:30.929Z,20.66
2022-10-05T08:30:09.307Z,21.04
2022-10-05T08:32:48.021Z,21.59
2022-10-05T08:35:24.285Z,22.08
2022-10-05T08:37:54.493Z,22.45
2022-10-05T08:40:33.073Z,22.69
2022-10-05T08:43:11.512Z,22.97
2022-10-05T08:46:02.948Z,23.39
2022-10-05T08:49:04.471Z,23.39
2022-10-05T08:51:36.808Z,23.89
2022-10-05T08:54:24.390Z,23.84
2022-10-05T08:56:59.727Z,23.38
2022-10-05T08:59:47.677Z,23.15
2022-10-05T09:02:49.347Z,23.68
2022-10-05T09:05:18.932Z,24.21
2022-10-05T09:08:04.398Z,24.70
2022-10-05T09:11:02.556Z,25.34
2022-10-05T09:13:48.287Z,25.71
2022-10-05T09:16:36.940Z,26.41
2022-10-05T09:19:34.110Z,27.04
2022-10-05T09:22:15.730Z,27.17
2022-10-05T09:24:46.265Z,27.33
2022-10-05T09:27:21.978Z,27.74
2022-10-05T09:30:13.462Z,27.98
2022-10-05T09:33:01.562Z,28.13
2022-10-05T09:36:05.039Z,28.04
2022-10-05T09:39:33.252Z,27.85
2022-10-05T09:42:27.314Z,28.30
2022-10-05T09:44:53.837Z,28.14
2022-10-05T09:47:29.393Z,28.21
2022-10-05T09:50:14.031Z,28.08
2022-10-05T09:53:09.727Z,28.07
2022-10-05T09:56:12.843Z,28.09
2022-10-05T09:59:07.566Z,27.97
2022-10-05T10:01:40.147Z,28.00
2022-10-05T10:04:13.705Z,28.39
2022-10-05T10:06:40.143Z,28.82
2022-10-05T10:09:12.142Z,29.27
2022-10-05T10:12:01.827Z,29.29
2022-10-05T10:14:53.277Z,29.35
2022-10-05T10:18:10.989Z,29.54
2022-10-05T10:21:03.081Z,29.70
2022-10-05T10:23:48.056Z,30.06
2022-10-05T10:26:17.266Z,29.93
2022-10-05T10:29:05.807Z,30.06
2022-10-05T10:31:54.293Z,29.45
2022-10-05T10:34:40.091Z,29.60
2022-10-05T10:38:00.484Z,29.08
2022-10-05T10:40:42.405Z,29.47
2022-10-05T10:43:46.103Z,29.14
2022-10-05T10:46:53.990Z,28.68
2022-10-05T10:49:35.870Z,29.29
2022-10-05T10:52:18.841Z,29.26
2022-10-05T10:54:48.644Z,29.85
2022-10-05T10:57:36.796Z,30.05
2022-10-05T11:00:06.388Z,30.36
2022-10-05T11:02:55.226Z,30.82
2022-10-05T11:05:48.818Z,30.90
2022-10-05T11:08:36.153Z,29.99
2022-10-05T11:11:08.837Z,30.15
2022-10-05T11:13:47.942Z,29.23
2022-10-05T11:16:53.716Z,29.06
2022-10-05T11:20:04.037Z,28.94
2022-10-05T11:22:51.237Z,29.74
2022-10-05T11:25:36.511Z,30.26
2022-10-05T11:28:06.182Z,30.27
2022-10-05T11:30:51.242Z,30.67
2022-10-05T11:33:49.945Z,30.70
2022-10-05T11:36:34.970Z,31.08
2022-10-05T11:39:36.997Z,31.13
2022-10-05T11:42:24.812Z,31.16
2022-10-05T11:45:14.559Z,30.80
2022-10-05T11:48:07.299Z,30.42
2022-10-05T11:51:00.083Z,30.36
2022-10-05T11:53:41.123Z,30.43
2022-10-05T11:56:26.089Z,30.89
2022-10-05T11:59:11.895Z,31.41
2022-10-05T12:01:46.861Z,31.65
2022-10-05T12:04:28.362Z,31.59
2022-10-05T12:07:03.061Z,31.99
2022-10-05T12:10:05.102Z,32.49
2022-10-05T12:12:39.826Z,32.23
2022-10-05T12:15:19.078Z,32.37
2022-10-05T12:18:13.766Z,32.30
2022-10-05T12:20:46.628Z,31.54
2022-10-05T12:23:35.213Z,31.55
2022-10-05T12:26:11.148Z,31.77
2022-10-05T12:28:59.317Z,31.80
2022-10-05T12:31:41.154Z,31.68
2022-10-05T12:34:36.906Z,31.63
2022-10-05T12:37:28.627Z,31.43
2022-10-05T12:40:06.228Z,31.45
2022-10-05T12:42:54.825Z,31.82
2022-10-05T12:45:23.892Z,31.58
2022-10-05T12:48:15.211Z,31.84
2022-10-05T12:50:46.492Z,31.83
2022-10-05T12:53:48.514Z,31.87
2022-10-05T12:56:27.358Z,32.06
2022-10-05T12:58:56.507Z,32.22
2022-10-05T13:01:37.173Z,32.68
2022-10-05T13:04:11.018Z,32.76
2022-10-05T13:07:14.492Z,32.64
2022-10-05T13:09:51.242Z,32.26
2022-10-05T13:12:46.121Z,32.42
2022-10-05T13:15:25.371Z,32.45
2022-10-05T13:18:05.970Z,32.93
2022-10-05T13:20:42.406Z,32.80
2022-10-05T13:23:25.196Z,32.75
2022-10-05T13:26:12.205Z,32.72
2022-10-05T13:28:44.661Z,32.56
2022-10-05T13:31:30.908Z,32.56
2022-10-05T13:34:33.746Z,32.69
2022-10-05T13:37:28.000Z,32.65
2022-10-05T13:40:03.743Z,32.47
2022-10-05T13:42:52.652Z,32.56
2022-10-05T13:45:26.019Z,33.00
2022-10-05T13:47:52.553Z,32.85
2022-10-05T13:50:28.557Z,32.73
2022-10-05T13:53:00.337Z,32.66
2022-10-05T13:55:37.187Z,32.78
2022-10-05T13:58:15.861Z,32.48
2022-10-05T14:00:52.936Z,32.05
2022-10-05T14:03:35.167Z,31.75
2022-10-05T14:06:12.317Z,31.68
2022-10-05T14:08:51.624Z,31.58
2022-10-05T14:11:30.603Z,31.72
2022-10-05T14:14:10.496Z,31.89
2022-10-05T14:16:58.406Z,32.05
2022-10-05T14:19:31.297Z,32.11
2022-10-05T14:22:03.519Z,31.89
2022-10-05T14:24:44.801Z,31.51
2022-10-05T14:27:27.479Z,31.12
2022-10-05T14:30:12.162Z,31.19
2022-10-05T14:33:17.155Z,31.22
2022-10-05T14:35:49.086Z,31.36
2022-10-05T14:38:56.063Z,31.21
2022-10-05T14:41:27.561Z,31.27
2022-10-05T14:44:09.355Z,31.40
2022-10-05T14:46:37.193Z,31.48
2022-10-05T14:49:21.172Z,31.41
2022-10-05T14:51:48.815Z,31.11
2022-10-05T14:54:35.862Z,31.00
2022-10-05T14:57:34.156Z,30.87
2022-10-05T15:00:11.853Z,30.78
2022-10-05T15:02:50.232Z,30.49
2022-10-05T15:05:49.419Z,30.23
2022-10-05T15:08:48.181Z,30.03
2022-10-05T15:11:30.048Z,30.01
2022-10-05T15:13:58.823Z,29.99
2022-10-05T15:16:39.094Z,29.90
2022-10-05T15:19:20.984Z,29.86
2022-10-05T15:21:55.971Z,29.70
2022-10-05T15:24:26.710Z,29.46
2022-10-05T15:27:04.026Z,29.21
2022-10-05T15:30:04.413Z,29.01
2022-10-05T15:32:39.043Z,28.85
2022-10-05T15:35:17.410Z,28.65
2022-10-05T15:37:53.151Z,28.50
2022-10-05T15:40:37.069Z,28.29
2022-10-05T15:43:11.580Z,28.16
2022-10-05T15:45:47.597Z,27.99
2022-10-05T15:48:39.354Z,28.02
2022-10-05T15:51:17.043Z,27.83
2022-10-05T15:54:17.588Z,27.55
2022-10-05T15:57:20.838Z,27.64
2022-10-05T15:59:56.094Z,27.50
2022-10-05T16:02:29.899Z,27.30
2022-10-05T16:05:19.884Z,27.28
2022-10-05T16:08:10.928Z,27.13
2022-10-05T16:10:44.191Z,26.90
2022-10-05T16:13:59.893Z,26.65
2022-10-05T16:16:47.162Z,26.51
2022-10-05T16:19:29.593Z,26.40
2022-10-05T16:22:14.189Z,26.33
2022-10-05T16:24:50.736Z,26.00
2022-10-05T16:27:49.752Z,25.91
2022-10-05T16:30:25.332Z,25.66
2022-10-05T16:33:26.124Z,25.39
2022-10-05T16:36:09.725Z,25.46
2022-10-05T16:38:52.379Z,24.99
2022-10-05T16:41:30.194Z,24.80
2022-10-05T16:44:02.668Z,24.72
2022-10-05T16:46:37.139Z,24.49
2022-10-05T16:49:15.626Z,24.28
2022-10-05T16:52:05.088Z,24.05
2022-10-05T16:54:37.791Z,23.70
2022-10-05T16:57:20.096Z,23.78
2022-10-05T17:00:08.111Z,23.69
2022-10-05T17:02:58.785Z,23.57
2022-10-05T17:05:51.351Z,23.44
2022-10-05T17:08:45.500Z,23.23
2022-10-05T17:11:33.217Z,23.12
2022-10-05T17:14:33.334Z,22.99
2022-10-05T17:16:59.776Z,22.95
2022-10-05T17:19:41.119Z,22.89
2022-10-05T17:22:22.725Z,22.83
2022-10-05T17:25:01.813Z,22.75
2022-10-05T17:27:51.028Z,22.70
2022-10-05T17:30:27.170Z,22.63
2022-10-05T17:33:26.294Z,22.60
2022-10-05T17:36:45.455Z,22.51
2022-10-05T17:39:14.669Z,22.36
2022-10-05T17:41:41.434Z,22.18
2022-10-05T17:44:19.078Z,22.25
2022-10-05T17:46:57.355Z,22.07
2022-10-05T17:50:14.753Z,22.09
2022-10-05T17:53:02.814Z,22.04
2022-10-05T17:55:32.144Z,21.93
2022-10-05T17:58:20.145Z,21.71
2022-10-05T18:00:58.952Z,21.47
2022-10-05T18:03:37.795Z,21.29
2022-10-05T18:06:26.427Z,21.23
2022-10-05T18:09:11.567Z,21.14
2022-10-05T18:11:41.299Z,21.02
2022-10-05T18:14:24.807Z,20.98
2022-10-05T18:17:11.853Z,20.68
2022-10-05T18:19:39.594Z,20.68
2022-10-05T18:22:18.327Z,20.68
2022-10-05T18:24:56.127Z,20.56
2022-10-05T18:27:47.773Z,20.49
2022-10-05T18:30:24.835Z,20.40
2022-10-05T18:33:17.553Z,20.36
2022-10-05T18:36:05.900Z,20.60
2022-10-05T18:38:55.956Z,20.63
2022-10-05T18:41:40.310Z,20.52
2022-10-05T18:44:34.730Z,20.23
2022-10-05T18:47:41.023Z,19.95
2022-10-05T18:50:07.514Z,19.98
2022-10-05T18:53:01.164Z,19.79
2022-10-05T18:56:04.020Z,19.55
2022-10-05T18:59:34.224Z,19.51
2022-10-05T19:02:13.799Z,19.37
2022-10-05T19:04:40.732Z,19.32
2022-10-05T19:07:16.806Z,19.21
2022-10-05T19:10:04.907Z,19.25
2022-10-05T19:12:55.802Z,19.17
2022-10-05T19:15:47.401Z,19.14
2022-10-05T19:18:14.381Z,19.22
2022-10-05T19:20:50.522Z,19.13
2022-10-05T19:23:20.013Z,19.05
2022-10-05T19:25:51.358Z,19.06
2022-10-05T19:28:21.425Z,19.11
2022-10-05T19:30:50.676Z,19.12
2022-10-05T19:33:35.800Z,19.03
2022-10-05T19:36:24.273Z,19.02
2022-10-05T19:39:19.599Z,18.89
2022-10-05T19:41:54.739Z,18.75
2022-10-05T19:44:38.891Z,18.82
2022-10-05T19:47:33.207Z,18.85
2022-10-05T19:50:23.273Z,18.85
2022-10-05T19:52:52.047Z,19.06
2022-10-05T19:55:39.175Z,19.10
2022-10-05T19:58:21.795Z,19.25
2022-10-05T20:01:13.556Z,19.07
2022-10-05T20:03:41.024Z,18.92
2022-10-05T20:06:10.376Z,18.96
2022-10-05T20:08:43.797Z,18.79
2022-10-05T20:11:23.652Z,18.62
2022-10-05T20:13:53.411Z,18.57
2022-10-05T20:16:46.756Z,18.40
2022-10-05T20:19:55.481Z,18.29
2022-10-05T20:22:35.182Z,18.22
2022-10-05T20:25:06.869Z,18.19
2022-10-05T20:27:44.163Z,18.04
2022-10-05T20:30:16.108Z,18.08
2022-10-05T20:32:43.725Z,18.24
2022-10-05T20:35:10.757Z,18.44
2022-10-05T20:37:37.433Z,18.51
2022-10-05T20:40:05.387Z,18.36
2022-10-05T20:42:34.997Z,18.19
2022-10-05T20:45:03.401Z,18.17
2022-10-05T20:47:30.252Z,18.13
2022-10-05T20:49:57.152Z,18.28
2022-10-05T20:52:23.680Z,18.31
2022-10-05T20:54:53.932Z,18.62
2022-10-05T20:57:24.312Z,18.68
2022-10-05T20:59:51.515Z,18.65
2022-10-05T21:02:20.907Z,18.62
2022-10-05T21:04:48.074Z,18.47
2022-10-05T21:07:21.097Z,18.40
2022-10-05T21:09:47.652Z,18.22
2022-10-05T21:12:16.265Z,18.05
2022-10-05T21:14:42.793Z,17.78
2022-10-05T21:17:09.564Z,17.73
2022-10-05T21:19:39.464Z,17.79
2022-10-05T21:22:07.758Z,17.89
2022-10-05T21:24:39.457Z,17.95
2022-10-05T21:27:07.028Z,18.08
2022-10-05T21:29:34.374Z,18.26
2022-10-05T21:32:01.307Z,18.63
2022-10-05T21:34:28.682Z,18.59
2022-10-05T21:36:55.471Z,18.40
2022-10-05T21:39:22.003Z,18.16
2022-10-05T21:41:49.769Z,18.41
2022-10-05T21:44:16.749Z,18.29
2022-10-05T21:46:43.494Z,18.16
2022-10-05T21:49:10.061Z,18.20
2022-10-05T21:51:38.134Z,18.32
2022-10-05T21:54:11.631Z,18.11
2022-10-05T21:56:43.053Z,17.97
2022-10-05T21:59:12.627Z,18.06
2022-10-05T22:01:39.313Z,17.98
2022-10-05T22:04:06.715Z,17.84
2022-10-05T22:06:35.533Z,17.90
2022-10-05T22:09:03.276Z,17.70
2022-10-05T22:11:29.835Z,17.85
2022-10-05T22:14:02.409Z,18.01
2022-10-05T22:16:32.850Z,17.84
2022-10-05T22:19:03.710Z,17.78
2022-10-05T22:21:30.569Z,17.54
2022-10-05T22:23:57.380Z,17.55
2022-10-05T22:26:24.590Z,17.42
2022-10-05T22:28:52.426Z,17.45
2022-10-05T22:31:19.009Z,17.72
2022-10-05T22:33:45.553Z,17.55
2022-10-05T22:36:12.103Z,17.58
2022-10-05T22:38:38.771Z,17.54
2022-10-05T22:41:10.857Z,17.49
2022-10-05T22:43:37.657Z,17.60
2022-10-05T22:46:11.478Z,17.52
2022-10-05T22:48:41.480Z,17.51
2022-10-05T22:51:08.760Z,17.66
2022-10-05T22:53:35.526Z,17.47
2022-10-05T22:56:11.096Z,17.33
2022-10-05T22:58:40.374Z,17.48
2022-10-05T23:01:10.199Z,17.42
2022-10-05T23:03:36.974Z,17.31
2022-10-05T23:06:06.487Z,17.16
2022-10-05T23:08:34.038Z,17.17
2022-10-05T23:11:05.121Z,17.09
2022-10-05T23:13:32.659Z,16.97
2022-10-05T23:16:09.283Z,17.01
2022-10-05T23:18:36.213Z,16.79
2022-10-05T23:21:03.640Z,16.79
2022-10-05T23:23:30.134Z,16.68
2022-10-05T23:26:00.484Z,16.38
2022-10-05T23:28:28.670Z,16.44
2022-10-05T23:31:04.639Z,16.36
2022-10-05T23:33:31.704Z,16.52
2022-10-05T23:36:16.829Z,16.59
2022-10-05T23:38:43.605Z,16.59
2022-10-05T23:41:10.839Z,16.60
2022-10-05T23:43:37.677Z,16.60
2022-10-05T23:46:05.623Z,16.58
2022-10-05T23:48:32.716Z,16.56
2022-10-05T23:50:59.810Z,16.64
2022-10-05T23:53:26.461Z,16.64
2022-10-05T23:55:53.866Z,16.68
2022-10-05T23:58:21.593Z,16.65
